Ana Sayfa
METAR-TAF:

METAR-TAF

Havaalanları :

Naval Auxiliary Landing Field Fentress

Chesapeake, Virginia, Amerika Birleşik Devletleri

Enlem: 36-42-03N, Boylam: 076-07-42W, yükseklik: 3 m

Güncel hava durumu gözlemi

Rapor saat 04:26 UTC de 12 dakika önce yapıldı.
Rüzgar kuzeydan 13 kt ve 20 kt'a kadar ani rüzgarlar
Sıcaklık -2°C
Nem 86%
Basınç 1028 hPa
Görüş mesafesi: 1.6 km
hafif kar

METAR: KNFE 220426Z AUTO 36013G20KT 1SM -SN VV009 M02/M04 A3035 RMK AO2 P0001 T10171044 $

Saat: 23:38 (04:38 UTC)


TAF: eksik

4.000'den fazla havaalanı için hava durumu gözlemleri ve tahminleri (METAR ve TAF raporları).

Kullanılabilir istasyonlar harita üzerinde sarı ve kırmızı noktalarla gösterilir.

İstasyonun adını görmek için fareyi noktanın üzerinde gezdirin.

Sonrasında hava gözlem ve tahminlerini görmek için tıklayın.

Haritayı değiştirmek için: yaklaştırmak için siyah artı işaretli yeşil düğmeye ve uzaklaştırmak için de eksi işaretli düğmeye hızla tıklayın; bitişik haritalar için yeşil okları kullanın.


METAR-TAF: